createdAt,value
2022-11-29T00:01:32.766Z,16.33
2022-11-29T00:04:00.845Z,15.73
2022-11-29T00:06:31.160Z,15.73
2022-11-29T00:09:03.291Z,16.73
2022-11-29T00:11:52.970Z,16.63
2022-11-29T00:14:20.978Z,17.83
2022-11-29T00:16:57.201Z,16.20
2022-11-29T00:19:24.809Z,15.77
2022-11-29T00:21:52.233Z,16.88
2022-11-29T00:24:19.884Z,14.00
2022-11-29T00:26:48.225Z,14.32
2022-11-29T00:29:16.152Z,15.32
2022-11-29T00:31:44.472Z,14.20
2022-11-29T00:34:12.797Z,15.50
2022-11-29T00:36:40.884Z,14.90
2022-11-29T00:39:11.982Z,13.93
2022-11-29T00:41:40.305Z,13.13
2022-11-29T00:44:08.206Z,13.27
2022-11-29T00:46:35.949Z,13.65
2022-11-29T00:49:03.716Z,14.07
2022-11-29T00:51:31.131Z,14.43
2022-11-29T00:53:58.516Z,13.65
2022-11-29T00:56:25.944Z,13.13
2022-11-29T00:58:53.332Z,13.77
2022-11-29T01:01:20.747Z,13.48
2022-11-29T01:03:48.455Z,13.60
2022-11-29T01:10:29.337Z,13.30
2022-11-29T01:12:56.855Z,13.00
2022-11-29T01:15:24.307Z,15.82
2022-11-29T01:17:51.823Z,14.15
2022-11-29T01:20:20.186Z,14.63
2022-11-29T01:22:47.787Z,16.38
2022-11-29T01:25:15.661Z,22.48
2022-11-29T01:27:43.150Z,13.02
2022-11-29T01:30:11.260Z,14.23
2022-11-29T01:32:39.078Z,12.68
2022-11-29T01:35:07.357Z,12.90
2022-11-29T01:37:34.836Z,14.05
2022-11-29T01:40:02.279Z,12.20
2022-11-29T01:42:29.625Z,13.98
2022-11-29T01:45:03.567Z,13.45
2022-11-29T01:47:31.881Z,13.63
2022-11-29T01:49:59.877Z,14.45
2022-11-29T01:52:31.852Z,15.23
2022-11-29T01:55:04.073Z,13.35
2022-11-29T01:57:32.981Z,14.38
2022-11-29T02:00:10.583Z,14.95
2022-11-29T02:03:01.713Z,16.38
2022-11-29T02:05:29.618Z,13.02
2022-11-29T02:07:59.035Z,14.27
2022-11-29T02:10:43.223Z,14.73
2022-11-29T02:13:20.354Z,14.93
2022-11-29T02:16:03.868Z,15.50
2022-11-29T02:19:03.287Z,14.52
2022-11-29T02:21:48.964Z,12.25
2022-11-29T02:24:41.777Z,13.10
2022-11-29T02:27:09.323Z,13.93
2022-11-29T02:30:08.574Z,15.00
2022-11-29T02:33:00.241Z,15.48
2022-11-29T02:35:49.159Z,16.50
2022-11-29T02:38:41.360Z,13.48
2022-11-29T02:41:35.292Z,15.63
2022-11-29T02:44:28.357Z,16.05
2022-11-29T02:47:01.429Z,15.57
2022-11-29T02:50:08.357Z,14.30
2022-11-29T02:53:13.526Z,14.52
2022-11-29T02:55:59.913Z,15.38
2022-11-29T02:58:42.593Z,14.88
2022-11-29T03:01:23.778Z,14.75
2022-11-29T03:06:48.430Z,14.27
2022-11-29T03:09:34.409Z,15.43
2022-11-29T03:12:33.819Z,15.27
2022-11-29T03:15:20.957Z,14.65
2022-11-29T03:18:00.963Z,15.52
2022-11-29T03:20:55.414Z,15.68
2022-11-29T03:23:39.862Z,14.15
2022-11-29T03:26:22.996Z,13.60
2022-11-29T03:29:07.409Z,16.00
2022-11-29T03:31:36.366Z,15.32
2022-11-29T03:34:22.565Z,15.48
2022-11-29T03:37:16.086Z,13.57
2022-11-29T03:40:16.104Z,13.02
2022-11-29T03:43:08.978Z,13.52
2022-11-29T03:45:42.427Z,12.38
2022-11-29T03:48:15.525Z,12.65
2022-11-29T03:50:50.294Z,14.15
2022-11-29T03:53:42.080Z,12.93
2022-11-29T03:56:27.592Z,12.88
2022-11-29T03:59:24.340Z,11.85
2022-11-29T04:01:57.482Z,11.05
2022-11-29T04:05:08.551Z,11.95
2022-11-29T04:10:28.126Z,11.50
2022-11-29T04:13:13.598Z,11.10
2022-11-29T04:15:58.970Z,11.27
2022-11-29T04:18:37.546Z,10.45
2022-11-29T04:21:42.573Z,12.23
2022-11-29T04:24:24.770Z,10.32
2022-11-29T04:26:55.221Z,10.68
2022-11-29T04:29:35.004Z,10.98
2022-11-29T04:32:26.271Z,11.13
2022-11-29T04:37:57.153Z,11.63
2022-11-29T04:40:43.389Z,10.77
2022-11-29T04:43:41.318Z,11.38
2022-11-29T04:46:33.567Z,11.15
2022-11-29T04:49:03.873Z,10.57
2022-11-29T04:52:26.466Z,10.17
2022-11-29T04:55:07.584Z,9.68
2022-11-29T04:57:43.257Z,10.00
2022-11-29T05:00:12.519Z,8.25
2022-11-29T05:03:20.522Z,10.45
2022-11-29T05:06:27.662Z,9.32
2022-11-29T05:09:10.923Z,10.50
2022-11-29T05:12:05.401Z,11.60
2022-11-29T05:14:47.669Z,11.75
2022-11-29T05:17:50.806Z,11.90
2022-11-29T05:21:12.231Z,12.30
2022-11-29T05:24:05.366Z,12.68
2022-11-29T05:26:44.166Z,13.13
2022-11-29T05:29:19.595Z,14.13
2022-11-29T05:32:20.144Z,13.68
2022-11-29T05:35:08.911Z,13.80
2022-11-29T05:37:52.658Z,14.05
2022-11-29T05:40:43.839Z,15.27
2022-11-29T05:43:44.789Z,16.40
2022-11-29T05:46:26.968Z,14.75
2022-11-29T05:49:10.562Z,14.02
2022-11-29T05:51:45.427Z,14.80
2022-11-29T05:54:31.003Z,15.57
2022-11-29T05:57:10.234Z,14.73
2022-11-29T05:59:38.990Z,14.90
2022-11-29T06:02:15.276Z,13.27
2022-11-29T06:05:03.671Z,13.48
2022-11-29T06:07:37.707Z,12.45
2022-11-29T06:10:20.761Z,12.43
2022-11-29T06:13:15.178Z,13.10
2022-11-29T06:15:58.152Z,13.68
2022-11-29T06:18:53.496Z,13.18
2022-11-29T06:21:33.413Z,13.10
2022-11-29T06:24:24.814Z,12.43
2022-11-29T06:27:31.725Z,11.75
2022-11-29T06:30:20.929Z,13.55
2022-11-29T06:33:12.513Z,12.70
2022-11-29T06:35:59.601Z,12.88
2022-11-29T06:38:29.854Z,13.88
2022-11-29T06:41:02.082Z,12.32
2022-11-29T06:43:30.340Z,36.03
2022-11-29T06:46:24.673Z,12.48
2022-11-29T06:49:02.154Z,11.30
2022-11-29T06:51:55.795Z,12.85
2022-11-29T06:54:33.728Z,14.27
2022-11-29T06:57:26.694Z,13.27
2022-11-29T07:00:06.722Z,13.98
2022-11-29T07:02:45.863Z,12.75
2022-11-29T07:05:33.622Z,12.10
2022-11-29T07:08:18.832Z,10.25
2022-11-29T07:10:49.956Z,8.85
2022-11-29T07:15:57.239Z,13.73
2022-11-29T07:18:39.445Z,8.27
2022-11-29T07:21:13.476Z,9.73
2022-11-29T07:24:22.141Z,8.05
2022-11-29T07:26:59.918Z,8.82
2022-11-29T07:29:36.781Z,9.52
2022-11-29T07:32:15.830Z,8.93
2022-11-29T07:35:04.192Z,10.30
2022-11-29T07:37:57.807Z,9.68
2022-11-29T07:40:40.295Z,9.55
2022-11-29T07:43:26.146Z,11.07
2022-11-29T07:45:54.949Z,10.57
2022-11-29T07:48:22.411Z,12.02
2022-11-29T07:50:49.768Z,13.40
2022-11-29T07:53:19.763Z,11.30
2022-11-29T07:55:48.340Z,11.07
2022-11-29T07:58:17.716Z,11.68
2022-11-29T08:00:45.832Z,11.80
2022-11-29T08:03:13.526Z,10.73
2022-11-29T08:05:45.662Z,12.38
2022-11-29T08:08:13.532Z,11.52
2022-11-29T08:10:40.980Z,10.57
2022-11-29T08:13:08.355Z,10.85
2022-11-29T08:15:35.772Z,11.45
2022-11-29T08:18:03.486Z,11.02
2022-11-29T08:20:30.825Z,10.40
2022-11-29T08:22:59.609Z,9.20
2022-11-29T08:25:28.257Z,9.95
2022-11-29T08:27:56.633Z,9.57
2022-11-29T08:30:24.270Z,10.63
2022-11-29T08:32:52.346Z,10.18
2022-11-29T08:35:21.304Z,9.77
2022-11-29T08:37:49.498Z,9.15
2022-11-29T08:40:17.469Z,13.80
2022-11-29T08:42:46.478Z,10.15
2022-11-29T08:45:14.019Z,10.60
2022-11-29T08:47:42.448Z,42.88
2022-11-29T08:50:17.522Z,10.77
2022-11-29T08:53:26.209Z,10.32
2022-11-29T08:55:53.588Z,10.80
2022-11-29T08:58:21.550Z,10.38
2022-11-29T09:00:49.235Z,9.57
2022-11-29T09:03:35.046Z,9.75
2022-11-29T09:06:12.047Z,11.15
2022-11-29T09:08:43.481Z,10.00
2022-11-29T09:11:17.288Z,11.50
2022-11-29T09:13:47.802Z,11.43
2022-11-29T09:16:18.351Z,10.77
2022-11-29T09:18:51.424Z,10.73
2022-11-29T09:21:19.771Z,11.27
2022-11-29T09:23:47.299Z,11.98
2022-11-29T09:26:19.834Z,11.15
2022-11-29T09:28:47.380Z,11.13
2022-11-29T09:31:17.035Z,12.40
2022-11-29T09:33:45.601Z,12.95
2022-11-29T09:36:13.212Z,12.85
2022-11-29T09:38:40.973Z,14.25
2022-11-29T09:41:32.845Z,14.95
2022-11-29T09:44:17.119Z,13.73
2022-11-29T09:47:41.911Z,15.65
2022-11-29T09:50:45.580Z,15.07
2022-11-29T09:53:30.806Z,14.40
2022-11-29T09:56:10.247Z,14.07
2022-11-29T09:58:57.113Z,15.40
2022-11-29T10:01:37.391Z,16.10
2022-11-29T10:04:12.278Z,15.60
2022-11-29T10:06:46.172Z,15.73
2022-11-29T10:09:24.533Z,16.75
2022-11-29T10:12:02.905Z,15.20
2022-11-29T10:14:42.783Z,14.95
2022-11-29T10:17:30.281Z,16.25
2022-11-29T10:20:10.511Z,18.50
2022-11-29T10:22:54.453Z,17.17
2022-11-29T10:25:48.839Z,16.30
2022-11-29T10:28:19.823Z,15.75
2022-11-29T10:30:48.502Z,20.15
2022-11-29T10:33:37.143Z,17.25
2022-11-29T10:36:36.136Z,19.27
2022-11-29T10:39:14.452Z,19.90
2022-11-29T10:41:42.297Z,19.23
2022-11-29T10:44:13.770Z,18.50
2022-11-29T10:46:41.521Z,17.63
2022-11-29T10:49:15.835Z,17.13
2022-11-29T10:51:44.045Z,16.52
2022-11-29T10:54:34.539Z,16.02
2022-11-29T10:57:02.679Z,17.17
2022-11-29T10:59:32.928Z,16.88
2022-11-29T11:02:01.753Z,17.70
2022-11-29T11:04:44.524Z,16.38
2022-11-29T11:07:28.008Z,16.33
2022-11-29T11:09:57.116Z,17.48
2022-11-29T11:12:28.808Z,17.08
2022-11-29T11:15:28.262Z,17.42
2022-11-29T11:18:05.118Z,16.67
2022-11-29T11:20:35.903Z,17.30
2022-11-29T11:23:20.887Z,17.38
2022-11-29T11:25:50.159Z,17.25
2022-11-29T11:28:26.954Z,16.30
2022-11-29T11:31:05.842Z,15.27
2022-11-29T11:33:42.335Z,14.57
2022-11-29T11:36:09.823Z,15.55
2022-11-29T11:38:49.150Z,15.05
2022-11-29T11:41:48.993Z,13.35
2022-11-29T11:44:48.333Z,13.68
2022-11-29T11:47:37.838Z,13.45
2022-11-29T11:50:16.878Z,14.60
2022-11-29T11:52:53.867Z,14.02
2022-11-29T11:55:45.509Z,12.63
2022-11-29T11:58:29.962Z,12.57
2022-11-29T12:03:56.502Z,12.25
2022-11-29T12:06:36.968Z,12.63
2022-11-29T12:09:19.242Z,13.45
2022-11-29T12:12:01.726Z,15.02
2022-11-29T12:15:07.431Z,14.77
2022-11-29T12:17:48.594Z,14.10
2022-11-29T12:20:30.447Z,12.93
2022-11-29T12:23:13.139Z,13.82
2022-11-29T12:25:55.924Z,14.48
2022-11-29T12:28:31.984Z,15.13
2022-11-29T12:31:26.877Z,14.70
2022-11-29T12:34:13.868Z,13.93
2022-11-29T12:37:09.826Z,11.68
2022-11-29T12:39:52.427Z,11.25
2022-11-29T12:42:36.010Z,11.38
2022-11-29T12:45:15.691Z,12.15
2022-11-29T12:48:02.329Z,12.43
2022-11-29T12:50:43.865Z,14.50
2022-11-29T12:53:28.958Z,12.38
2022-11-29T12:56:10.993Z,12.98
2022-11-29T12:58:56.939Z,13.48
2022-11-29T13:01:33.681Z,14.90
2022-11-29T13:04:14.888Z,15.50
2022-11-29T13:09:23.288Z,16.13
2022-11-29T13:12:13.469Z,16.70
2022-11-29T13:15:03.466Z,16.17
2022-11-29T13:18:00.901Z,13.82
2022-11-29T13:20:41.033Z,14.23
2022-11-29T13:24:08.019Z,14.38
2022-11-29T13:26:35.721Z,16.08
2022-11-29T13:29:04.175Z,17.73
2022-11-29T13:31:33.045Z,15.93
2022-11-29T13:34:24.098Z,16.05
2022-11-29T13:37:16.861Z,16.55
2022-11-29T13:39:52.874Z,17.13
2022-11-29T13:42:52.729Z,19.10
2022-11-29T13:45:51.977Z,18.83
2022-11-29T13:48:34.680Z,18.05
2022-11-29T13:51:25.203Z,17.95
2022-11-29T13:53:54.462Z,17.57
2022-11-29T13:56:48.535Z,18.15
2022-11-29T13:59:28.395Z,18.98
2022-11-29T14:01:57.045Z,19.88
2022-11-29T14:04:28.707Z,17.88
2022-11-29T14:07:12.271Z,17.67
2022-11-29T14:09:45.326Z,18.63
2022-11-29T14:12:18.968Z,18.88
2022-11-29T14:14:57.055Z,19.85
2022-11-29T14:17:51.217Z,20.67
2022-11-29T14:20:30.466Z,19.67
2022-11-29T14:23:07.398Z,19.45
2022-11-29T14:25:51.846Z,20.33
2022-11-29T14:28:22.694Z,18.85
2022-11-29T14:30:55.001Z,18.75
2022-11-29T14:33:29.149Z,16.95
2022-11-29T14:36:03.953Z,16.75
2022-11-29T14:39:03.432Z,16.05
2022-11-29T14:41:40.392Z,16.63
2022-11-29T14:44:19.317Z,16.35
2022-11-29T14:46:48.613Z,16.80
2022-11-29T14:49:27.559Z,15.35
2022-11-29T14:52:18.316Z,13.48
2022-11-29T14:55:16.835Z,12.75
2022-11-29T14:57:50.167Z,13.50
2022-11-29T15:00:22.250Z,10.30
2022-11-29T15:03:09.806Z,10.55
2022-11-29T15:05:41.703Z,10.75
2022-11-29T15:08:33.114Z,10.68
2022-11-29T15:13:59.072Z,13.50
2022-11-29T15:16:41.483Z,11.23
2022-11-29T15:19:26.737Z,11.73
2022-11-29T15:21:56.893Z,10.88
2022-11-29T15:24:28.469Z,11.50
2022-11-29T15:27:04.060Z,11.70
2022-11-29T15:29:32.002Z,11.05
2022-11-29T15:32:03.560Z,10.65
2022-11-29T15:34:36.892Z,9.50
2022-11-29T15:37:04.849Z,10.35
2022-11-29T15:39:35.090Z,10.77
2022-11-29T15:42:14.249Z,10.82
2022-11-29T15:44:49.096Z,11.18
2022-11-29T15:47:25.636Z,11.15
2022-11-29T15:49:54.155Z,11.80
2022-11-29T15:52:35.874Z,10.75
2022-11-29T15:55:06.098Z,11.38
2022-11-29T15:57:35.575Z,10.68
2022-11-29T16:00:08.990Z,11.43
2022-11-29T16:02:41.446Z,10.65
2022-11-29T16:05:14.895Z,11.73
2022-11-29T16:07:44.546Z,10.20
2022-11-29T16:10:31.935Z,10.93
2022-11-29T16:13:25.968Z,11.50
2022-11-29T16:16:11.717Z,13.00
2022-11-29T16:18:41.957Z,12.73
2022-11-29T16:21:28.957Z,12.20
2022-11-29T16:23:57.478Z,11.65
2022-11-29T16:26:33.392Z,11.07
2022-11-29T16:29:01.883Z,10.88
2022-11-29T16:31:35.158Z,12.25
2022-11-29T16:34:17.771Z,12.20
2022-11-29T16:36:45.465Z,12.85
2022-11-29T16:39:31.409Z,11.88
2022-11-29T16:42:13.914Z,12.52
2022-11-29T16:44:41.476Z,11.82
2022-11-29T16:47:17.624Z,12.85
2022-11-29T16:49:45.232Z,11.70
2022-11-29T16:52:28.372Z,13.02
2022-11-29T16:54:56.081Z,12.63
2022-11-29T16:57:24.329Z,12.73
2022-11-29T16:59:52.030Z,13.18
2022-11-29T17:02:19.670Z,12.05
2022-11-29T17:04:47.736Z,13.73
2022-11-29T17:07:22.865Z,12.77
2022-11-29T17:09:50.542Z,13.15
2022-11-29T17:12:19.072Z,12.73
2022-11-29T17:14:46.789Z,12.30
2022-11-29T17:17:15.976Z,13.07
2022-11-29T17:19:43.569Z,13.38
2022-11-29T17:22:12.083Z,14.00
2022-11-29T17:24:44.793Z,13.43
2022-11-29T17:27:19.541Z,16.08
2022-11-29T17:29:47.078Z,14.55
2022-11-29T17:32:14.553Z,14.77
2022-11-29T17:34:42.014Z,13.68
2022-11-29T17:37:09.546Z,15.25
2022-11-29T17:39:37.067Z,14.57
2022-11-29T17:42:04.617Z,14.88
2022-11-29T17:44:33.958Z,15.73
2022-11-29T17:47:01.360Z,16.42
2022-11-29T17:49:28.954Z,16.05
2022-11-29T17:51:56.483Z,14.65
2022-11-29T17:54:24.441Z,14.70
2022-11-29T17:56:52.204Z,14.02
2022-11-29T17:59:20.501Z,15.85
2022-11-29T18:01:48.214Z,17.02
2022-11-29T18:04:15.852Z,16.95
2022-11-29T18:06:43.683Z,16.08
2022-11-29T18:09:12.924Z,16.25
2022-11-29T18:11:48.090Z,16.77
2022-11-29T18:14:23.511Z,16.70
2022-11-29T18:16:52.082Z,17.75
2022-11-29T18:19:21.452Z,17.20
2022-11-29T18:21:50.321Z,15.63
2022-11-29T18:24:18.803Z,16.35
2022-11-29T18:26:46.638Z,16.75
2022-11-29T18:29:14.279Z,16.95
2022-11-29T18:31:44.115Z,16.42
2022-11-29T18:34:13.773Z,17.05
2022-11-29T18:36:44.257Z,19.38
2022-11-29T18:39:17.534Z,20.48
2022-11-29T18:41:47.571Z,19.35
2022-11-29T18:44:17.087Z,18.90
2022-11-29T18:46:45.354Z,21.98
2022-11-29T18:49:15.143Z,19.70
2022-11-29T18:51:44.614Z,19.10
2022-11-29T18:54:12.795Z,18.60
2022-11-29T18:56:40.797Z,21.92
2022-11-29T18:59:14.902Z,22.67
2022-11-29T19:01:43.494Z,20.75
2022-11-29T19:04:16.697Z,22.65
2022-11-29T19:06:44.377Z,20.38
2022-11-29T19:09:16.401Z,21.08
2022-11-29T19:11:43.927Z,22.27
2022-11-29T19:14:12.751Z,23.20
2022-11-29T19:16:45.228Z,22.10
2022-11-29T19:19:13.153Z,21.85
2022-11-29T19:21:41.372Z,22.90
2022-11-29T19:24:15.750Z,22.80
2022-11-29T19:26:45.926Z,22.02
2022-11-29T19:29:14.387Z,22.65
2022-11-29T19:31:42.605Z,23.13
2022-11-29T19:34:10.615Z,22.50
2022-11-29T19:36:42.586Z,21.60
2022-11-29T19:39:12.240Z,21.60
2022-11-29T19:41:39.707Z,22.60
2022-11-29T19:44:08.421Z,22.48
2022-11-29T19:46:38.687Z,22.20
2022-11-29T19:49:08.217Z,21.30
2022-11-29T19:51:36.369Z,24.25
2022-11-29T19:54:06.333Z,24.23
2022-11-29T19:56:34.329Z,23.45
2022-11-29T19:59:01.869Z,21.02
2022-11-29T20:01:37.777Z,22.52
2022-11-29T20:08:31.844Z,23.17
2022-11-29T20:11:16.168Z,26.52
2022-11-29T20:13:46.774Z,22.73
2022-11-29T20:16:18.261Z,22.52
2022-11-29T20:18:50.935Z,25.83
2022-11-29T20:21:31.218Z,24.77
2022-11-29T20:24:06.535Z,23.38
2022-11-29T20:26:36.628Z,23.48
2022-11-29T20:29:05.467Z,23.25
2022-11-29T20:31:34.627Z,23.30
2022-11-29T20:34:02.887Z,22.20
2022-11-29T20:37:00.743Z,20.15
2022-11-29T20:39:47.185Z,21.60
2022-11-29T20:42:18.731Z,20.42
2022-11-29T20:44:53.907Z,21.33
2022-11-29T20:47:27.077Z,22.45
2022-11-29T20:49:54.725Z,21.55
2022-11-29T20:52:44.754Z,21.75
2022-11-29T20:55:12.254Z,22.65
2022-11-29T20:57:39.634Z,26.27
2022-11-29T21:00:10.427Z,21.30
2022-11-29T21:02:38.114Z,19.30
2022-11-29T21:05:06.419Z,20.83
2022-11-29T21:07:34.357Z,20.15
2022-11-29T21:10:02.227Z,22.25
2022-11-29T21:12:31.195Z,20.65
2022-11-29T21:14:58.841Z,20.70
2022-11-29T21:17:33.221Z,23.42
2022-11-29T21:20:01.636Z,22.50
2022-11-29T21:22:49.212Z,23.55
2022-11-29T21:25:39.926Z,22.50
2022-11-29T21:28:15.089Z,23.00
2022-11-29T21:30:43.674Z,23.17
2022-11-29T21:33:11.906Z,21.40
2022-11-29T21:35:40.037Z,23.13
2022-11-29T21:38:13.711Z,23.80
2022-11-29T21:40:42.393Z,22.40
2022-11-29T21:43:09.843Z,24.27
2022-11-29T21:45:37.294Z,24.67
2022-11-29T21:48:24.906Z,24.15
2022-11-29T21:50:52.334Z,24.92
2022-11-29T21:53:19.779Z,29.48
2022-11-29T21:55:47.195Z,24.10
2022-11-29T21:58:14.612Z,24.02
2022-11-29T22:00:42.021Z,23.60
2022-11-29T22:03:10.363Z,23.25
2022-11-29T22:05:37.762Z,23.75
2022-11-29T22:08:05.545Z,29.25
2022-11-29T22:10:32.899Z,24.45
2022-11-29T22:13:00.258Z,26.60
2022-11-29T22:15:28.059Z,25.15
2022-11-29T22:17:56.431Z,23.27
2022-11-29T22:20:23.923Z,25.23
2022-11-29T22:22:55.725Z,24.90
2022-11-29T22:25:26.037Z,23.67
2022-11-29T22:27:53.409Z,28.00
2022-11-29T22:30:21.034Z,24.75
2022-11-29T22:32:48.468Z,23.23
2022-11-29T22:35:16.024Z,23.02
2022-11-29T22:37:43.442Z,23.20
2022-11-29T22:40:11.547Z,23.27
2022-11-29T22:42:38.989Z,25.80
2022-11-29T22:45:06.773Z,23.65
2022-11-29T22:47:34.179Z,25.40
2022-11-29T22:50:01.544Z,25.77
2022-11-29T22:52:28.954Z,24.63
2022-11-29T22:55:01.310Z,23.45
2022-11-29T22:57:31.794Z,25.05
2022-11-29T22:59:59.240Z,24.73
2022-11-29T23:02:28.107Z,24.13
2022-11-29T23:04:55.585Z,24.35
2022-11-29T23:07:23.037Z,24.33
2022-11-29T23:09:50.447Z,23.45
2022-11-29T23:12:17.868Z,24.25
2022-11-29T23:14:45.504Z,22.40
2022-11-29T23:17:13.067Z,22.75
2022-11-29T23:19:40.416Z,21.85
2022-11-29T23:22:07.805Z,23.88
2022-11-29T23:24:35.144Z,22.90
2022-11-29T23:27:03.341Z,21.92
2022-11-29T23:29:30.705Z,22.67
2022-11-29T23:31:58.105Z,22.48
2022-11-29T23:34:25.575Z,23.85
2022-11-29T23:36:53.475Z,22.75
2022-11-29T23:39:21.311Z,23.35
2022-11-29T23:41:48.699Z,21.80
2022-11-29T23:44:16.100Z,22.30
2022-11-29T23:46:43.476Z,21.85
2022-11-29T23:49:10.854Z,21.60
2022-11-29T23:51:38.256Z,23.00
2022-11-29T23:54:05.869Z,22.90
2022-11-29T23:56:35.488Z,21.88
2022-11-29T23:59:03.754Z,22.92
